Time;durP1;ratioP1;P1;durP2;ratioP2;P2;SDS_P1;SDS_P2;PMS_P1;PMS_P2;Temp;Humidity;BMP_temperature;BMP_pressure;BME280_temperature;BME280_humidity;BME280_pressure;Samples;Min_cycle;Max_cycle;Signal;HPM_P1;HPM_P2
2022/04/18 00:01:26;;;;;;;15.93;10.88;;;;;;;;;;4913821;29;20052;-66
2022/04/18 00:03:53;;;;;;;13.68;10.32;;;;;;;;;;4914529;29;20048;-66
2022/04/18 00:06:19;;;;;;;15.38;10.10;;;;;;;;;;4914492;29;20044;-66
2022/04/18 00:08:45;;;;;;;14.48;10.40;;;;;;;;;;4913543;29;20055;-66
2022/04/18 00:11:11;;;;;;;13.30;10.23;;;;;;;;;;4914852;29;20051;-66
2022/04/18 00:13:37;;;;;;;13.30;9.88;;;;;;;;;;4914341;29;20507;-67
2022/04/18 00:16:03;;;;;;;16.17;10.30;;;;;;;;;;4913811;29;20040;-67
2022/04/18 00:18:29;;;;;;;17.58;11.02;;;;;;;;;;4914348;29;20040;-67
2022/04/18 00:20:55;;;;;;;15.30;10.70;;;;;;;;;;4914252;29;20040;-67
2022/04/18 00:23:21;;;;;;;15.40;10.40;;;;;;;;;;4913553;29;20342;-67
2022/04/18 00:25:47;;;;;;;16.75;10.70;;;;;;;;;;4919599;29;20491;-67
2022/04/18 00:28:15;;;;;;;16.17;10.70;;;;;;;;;;4933127;29;20043;-66
2022/04/18 00:30:42;;;;;;;17.20;10.98;;;;;;;;;;4932579;29;20039;-66
2022/04/18 00:33:09;;;;;;;17.35;10.25;;;;;;;;;;4933033;29;20539;-67
2022/04/18 00:35:35;;;;;;;15.50;9.60;;;;;;;;;;4933133;29;20044;-67
2022/04/18 00:38:01;;;;;;;17.17;10.23;;;;;;;;;;4932404;29;20067;-66
2022/04/18 00:40:27;;;;;;;16.50;10.95;;;;;;;;;;4963871;28;20046;-66
2022/04/18 00:43:01;;;;;;;12.82;9.38;;;;;;;;;;4933016;29;20040;-66
2022/04/18 00:45:27;;;;;;;18.13;11.05;;;;;;;;;;4932206;29;20047;-66
2022/04/18 00:47:53;;;;;;;14.75;10.45;;;;;;;;;;4932944;29;20039;-66
2022/04/18 00:50:19;;;;;;;15.57;10.95;;;;;;;;;;4932906;29;20118;-66
2022/04/18 00:52:46;;;;;;;17.20;10.75;;;;;;;;;;4931126;29;20107;-66
2022/04/18 00:55:12;;;;;;;16.83;10.85;;;;;;;;;;4963429;28;20048;-66
2022/04/18 00:57:39;;;;;;;17.33;11.27;;;;;;;;;;4932639;29;20407;-66
2022/04/18 01:00:05;;;;;;;17.20;11.48;;;;;;;;;;4932329;29;20036;-66
2022/04/18 01:02:32;;;;;;;15.85;11.27;;;;;;;;;;4932559;29;20092;-66
2022/04/18 01:04:58;;;;;;;14.85;10.18;;;;;;;;;;4932609;29;20043;-66
2022/04/18 01:07:24;;;;;;;18.10;11.15;;;;;;;;;;4931797;29;20126;-66
2022/04/18 01:09:50;;;;;;;18.67;11.25;;;;;;;;;;4932900;29;20132;-66
2022/04/18 01:12:16;;;;;;;18.42;11.55;;;;;;;;;;4932625;29;20138;-66
2022/04/18 01:14:49;;;;;;;21.35;11.25;;;;;;;;;;4932091;29;20044;-66
2022/04/18 01:17:15;;;;;;;19.02;11.38;;;;;;;;;;4932855;29;20685;-66
2022/04/18 01:19:42;;;;;;;17.50;11.68;;;;;;;;;;4932543;29;20044;-67
2022/04/18 01:22:12;;;;;;;20.55;12.68;;;;;;;;;;4934894;29;20040;-67
2022/04/18 01:30:08;;;;;;;23.42;12.75;;;;;;;;;;4916936;29;20079;-66
2022/04/18 01:32:34;;;;;;;22.50;11.77;;;;;;;;;;4917220;29;20100;-66
2022/04/18 01:35:00;;;;;;;19.67;12.13;;;;;;;;;;4917250;29;20320;-66
2022/04/18 01:37:26;;;;;;;19.65;12.68;;;;;;;;;;4916712;29;20531;-66
2022/04/18 01:39:52;;;;;;;22.48;12.00;;;;;;;;;;4917263;29;20043;-66
2022/04/18 01:42:18;;;;;;;19.70;12.43;;;;;;;;;;4917360;29;20032;-66
2022/04/18 01:44:44;;;;;;;20.20;11.73;;;;;;;;;;4899282;29;20044;-66
2022/04/18 01:47:10;;;;;;;20.15;11.77;;;;;;;;;;4917180;29;20036;-66
2022/04/18 01:49:36;;;;;;;24.55;12.50;;;;;;;;;;4917121;29;20084;-66
2022/04/18 01:52:02;;;;;;;20.70;12.45;;;;;;;;;;4916338;29;20106;-66
2022/04/18 01:54:27;;;;;;;18.80;11.93;;;;;;;;;;4916978;29;20040;-66
2022/04/18 01:56:53;;;;;;;19.55;12.50;;;;;;;;;;4917145;29;20059;-66
2022/04/18 01:59:19;;;;;;;20.27;13.88;;;;;;;;;;4914974;29;20072;-66
2022/04/18 02:01:45;;;;;;;18.02;11.57;;;;;;;;;;4916476;29;20107;-66
2022/04/18 02:04:11;;;;;;;23.05;13.43;;;;;;;;;;4916905;29;20052;-66
2022/04/18 02:06:37;;;;;;;18.00;12.70;;;;;;;;;;4916129;29;20064;-66
2022/04/18 02:09:03;;;;;;;20.73;12.75;;;;;;;;;;4916514;29;20456;-66
2022/04/18 02:11:29;;;;;;;20.00;12.65;;;;;;;;;;4916603;29;20435;-66
2022/04/18 02:13:56;;;;;;;23.10;13.10;;;;;;;;;;4915853;29;20483;-66
2022/04/18 02:16:23;;;;;;;20.35;12.38;;;;;;;;;;4915336;29;20127;-66
2022/04/18 02:18:49;;;;;;;20.52;12.60;;;;;;;;;;4916205;29;20032;-66
2022/04/18 02:21:16;;;;;;;18.77;12.55;;;;;;;;;;4915417;29;20048;-66
2022/04/18 02:23:42;;;;;;;17.15;12.70;;;;;;;;;;4916472;29;20040;-66
2022/04/18 02:26:09;;;;;;;18.52;12.40;;;;;;;;;;4924374;29;20043;-66
2022/04/18 02:28:35;;;;;;;20.33;11.85;;;;;;;;;;4934190;29;20087;-66
2022/04/18 02:31:02;;;;;;;19.70;12.32;;;;;;;;;;4935290;29;20482;-66
2022/04/18 02:33:28;;;;;;;18.80;11.63;;;;;;;;;;4934549;29;20043;-66
2022/04/18 02:35:54;;;;;;;18.55;11.65;;;;;;;;;;4933299;29;20043;-66
2022/04/18 02:38:20;;;;;;;18.60;12.25;;;;;;;;;;4935155;29;20043;-66
2022/04/18 02:40:46;;;;;;;22.13;13.70;;;;;;;;;;4934945;29;20047;-66
2022/04/18 02:43:12;;;;;;;20.63;12.60;;;;;;;;;;4934131;29;20143;-66
2022/04/18 02:45:38;;;;;;;16.73;12.18;;;;;;;;;;4934874;29;20042;-66
2022/04/18 02:48:05;;;;;;;20.05;12.57;;;;;;;;;;4934785;29;20040;-66
2022/04/18 02:50:31;;;;;;;18.48;11.50;;;;;;;;;;4934005;29;20079;-66
2022/04/18 02:52:57;;;;;;;20.05;12.52;;;;;;;;;;4934830;29;20039;-66
2022/04/18 02:55:25;;;;;;;21.83;13.23;;;;;;;;;;4934516;29;20083;-66
2022/04/18 02:57:51;;;;;;;19.00;12.15;;;;;;;;;;4934087;29;20043;-66
2022/04/18 03:00:17;;;;;;;16.17;11.90;;;;;;;;;;4934831;29;20036;-66
2022/04/18 03:02:43;;;;;;;18.75;12.95;;;;;;;;;;4934341;29;20138;-66
2022/04/18 03:05:10;;;;;;;16.48;11.88;;;;;;;;;;4933864;29;20056;-66
2022/04/18 03:07:36;;;;;;;21.58;12.40;;;;;;;;;;4934480;29;20047;-66
2022/04/18 03:10:03;;;;;;;20.63;12.85;;;;;;;;;;4934529;29;20090;-66
2022/04/18 03:12:29;;;;;;;18.85;13.07;;;;;;;;;;4933953;29;20135;-66
2022/04/18 03:14:55;;;;;;;18.35;12.00;;;;;;;;;;4934362;29;20134;-66
2022/04/18 03:17:21;;;;;;;23.15;12.63;;;;;;;;;;4934646;29;20039;-66
2022/04/18 03:19:47;;;;;;;17.40;11.93;;;;;;;;;;4933703;29;20044;-66
2022/04/18 03:22:13;;;;;;;18.52;12.90;;;;;;;;;;4934034;29;20111;-66
2022/04/18 03:24:39;;;;;;;18.02;12.40;;;;;;;;;;4934199;29;20111;-66
2022/04/18 03:27:05;;;;;;;16.98;11.60;;;;;;;;;;4918236;29;20052;-66
2022/04/18 03:29:32;;;;;;;22.33;13.88;;;;;;;;;;4915616;29;20044;-66
2022/04/18 03:31:58;;;;;;;18.67;12.75;;;;;;;;;;4915238;29;20464;-66
2022/04/18 03:34:24;;;;;;;20.48;13.05;;;;;;;;;;4914401;29;20046;-66
2022/04/18 03:39:51;;;;;;;19.13;12.38;;;;;;;;;;4915107;29;20526;-66
2022/04/18 03:42:19;;;;;;;19.10;12.50;;;;;;;;;;4912964;29;20048;-66
2022/04/18 03:44:46;;;;;;;18.88;12.70;;;;;;;;;;4914211;29;20480;-66
2022/04/18 03:47:12;;;;;;;17.23;12.52;;;;;;;;;;4897971;29;20083;-66
2022/04/18 03:49:39;;;;;;;19.00;12.15;;;;;;;;;;4914213;29;20040;-66
2022/04/18 03:52:05;;;;;;;19.95;12.88;;;;;;;;;;4913532;29;20048;-66
2022/04/18 03:54:31;;;;;;;18.33;12.27;;;;;;;;;;4914806;29;20048;-66
2022/04/18 03:56:57;;;;;;;19.80;12.10;;;;;;;;;;4913792;29;20040;-66
2022/04/18 03:59:23;;;;;;;20.70;12.32;;;;;;;;;;4914630;29;20047;-66
2022/04/18 04:01:49;;;;;;;18.38;12.13;;;;;;;;;;4914371;29;20055;-66
2022/04/18 04:04:15;;;;;;;18.38;11.90;;;;;;;;;;4913700;29;20056;-66
2022/04/18 04:06:41;;;;;;;20.33;12.68;;;;;;;;;;4914497;29;20048;-66
2022/04/18 04:09:07;;;;;;;19.00;12.13;;;;;;;;;;4914411;29;20052;-66
2022/04/18 04:11:33;;;;;;;19.85;12.07;;;;;;;;;;4913634;29;20088;-66
2022/04/18 04:13:59;;;;;;;18.50;12.20;;;;;;;;;;4914327;29;20107;-66
2022/04/18 04:16:25;;;;;;;18.08;12.15;;;;;;;;;;4914703;29;20087;-66
2022/04/18 04:18:51;;;;;;;18.83;12.95;;;;;;;;;;4913635;29;20447;-66
2022/04/18 04:21:17;;;;;;;17.27;11.93;;;;;;;;;;4914379;29;20169;-66
2022/04/18 04:23:43;;;;;;;17.05;11.45;;;;;;;;;;4914468;29;20426;-66
2022/04/18 04:26:09;;;;;;;18.25;12.30;;;;;;;;;;4920389;29;20054;-66
2022/04/18 04:28:35;;;;;;;17.02;11.55;;;;;;;;;;4933228;29;20451;-67
2022/04/18 04:31:04;;;;;;;17.77;12.93;;;;;;;;;;4933417;29;20048;-66
2022/04/18 04:33:30;;;;;;;17.08;11.65;;;;;;;;;;4932519;29;20406;-66
2022/04/18 04:35:58;;;;;;;15.30;12.15;;;;;;;;;;4933000;29;20051;-66
2022/04/18 04:38:24;;;;;;;18.10;12.27;;;;;;;;;;4933322;29;20047;-66
2022/04/18 04:40:50;;;;;;;18.25;12.45;;;;;;;;;;4932791;29;20102;-66
2022/04/18 04:43:16;;;;;;;15.60;11.27;;;;;;;;;;4932788;29;20071;-66
2022/04/18 04:45:42;;;;;;;18.70;11.88;;;;;;;;;;4933005;29;20119;-66
2022/04/18 04:48:08;;;;;;;16.42;12.07;;;;;;;;;;4933062;29;20115;-66
2022/04/18 04:50:35;;;;;;;18.92;11.85;;;;;;;;;;4932531;29;20044;-66
2022/04/18 04:53:01;;;;;;;16.13;11.57;;;;;;;;;;4933131;29;20079;-66
2022/04/18 04:55:28;;;;;;;17.30;11.57;;;;;;;;;;4935043;29;20075;-66
2022/04/18 04:57:54;;;;;;;17.50;11.55;;;;;;;;;;4936295;29;20047;-66
2022/04/18 05:00:20;;;;;;;16.98;11.20;;;;;;;;;;4936959;29;20505;-66
2022/04/18 05:02:46;;;;;;;18.42;11.90;;;;;;;;;;4936456;29;20422;-67
2022/04/18 05:05:12;;;;;;;16.58;11.48;;;;;;;;;;4936142;29;20050;-66
2022/04/18 05:07:38;;;;;;;17.17;11.60;;;;;;;;;;4936688;29;20118;-66
2022/04/18 05:10:04;;;;;;;17.42;11.43;;;;;;;;;;4936665;29;20106;-66
2022/04/18 05:12:32;;;;;;;18.92;11.70;;;;;;;;;;4936108;29;20495;-66
2022/04/18 05:15:02;;;;;;;19.63;11.63;;;;;;;;;;4936824;29;20058;-66
2022/04/18 05:17:28;;;;;;;18.58;11.82;;;;;;;;;;4936612;29;20036;-66
2022/04/18 05:19:54;;;;;;;17.17;11.20;;;;;;;;;;4935848;29;20043;-66
2022/04/18 05:22:20;;;;;;;19.33;11.50;;;;;;;;;;4936254;29;20104;-66
2022/04/18 05:24:46;;;;;;;17.13;11.65;;;;;;;;;;4936466;29;20082;-66
2022/04/18 05:27:15;;;;;;;16.80;11.82;;;;;;;;;;4919063;29;20442;-66
2022/04/18 05:29:44;;;;;;;16.15;11.48;;;;;;;;;;4917455;29;20444;-66
2022/04/18 05:32:10;;;;;;;15.82;11.30;;;;;;;;;;4917436;29;20179;-66
2022/04/18 05:34:36;;;;;;;17.08;11.02;;;;;;;;;;4916643;29;20056;-66
2022/04/18 05:37:02;;;;;;;19.00;12.15;;;;;;;;;;4917517;29;20067;-66
2022/04/18 05:39:28;;;;;;;18.35;11.40;;;;;;;;;;4917559;29;20131;-66
2022/04/18 05:41:56;;;;;;;16.55;11.20;;;;;;;;;;4916718;29;20512;-66
2022/04/18 05:44:22;;;;;;;16.73;11.02;;;;;;;;;;4917302;29;20052;-66
2022/04/18 05:46:48;;;;;;;16.42;11.40;;;;;;;;;;4917176;29;20495;-66
2022/04/18 05:49:14;;;;;;;20.52;11.80;;;;;;;;;;4916220;29;20040;-66
2022/04/18 05:51:40;;;;;;;17.90;10.50;;;;;;;;;;4916791;29;20044;-66
2022/04/18 05:54:06;;;;;;;18.73;11.93;;;;;;;;;;4916949;29;20074;-66
2022/04/18 05:56:32;;;;;;;15.93;11.35;;;;;;;;;;4916356;29;20146;-66
2022/04/18 05:58:59;;;;;;;16.27;11.98;;;;;;;;;;4916934;29;20476;-66
2022/04/18 06:01:25;;;;;;;17.95;11.77;;;;;;;;;;4916652;29;20107;-66
2022/04/18 06:03:51;;;;;;;16.65;12.05;;;;;;;;;;4916038;29;20155;-66
2022/04/18 06:06:17;;;;;;;20.13;12.13;;;;;;;;;;4916074;29;20039;-66
2022/04/18 06:08:43;;;;;;;20.17;12.98;;;;;;;;;;4916582;29;20056;-66
2022/04/18 06:11:09;;;;;;;20.42;11.45;;;;;;;;;;4916004;29;20048;-66
2022/04/18 06:13:35;;;;;;;17.75;12.32;;;;;;;;;;4916534;29;20497;-66
2022/04/18 06:16:01;;;;;;;18.13;12.32;;;;;;;;;;4916570;29;20040;-66
2022/04/18 06:18:27;;;;;;;21.25;12.25;;;;;;;;;;4915949;29;20475;-66
2022/04/18 06:20:53;;;;;;;19.90;12.07;;;;;;;;;;4916190;29;20521;-66
2022/04/18 06:23:19;;;;;;;19.98;12.70;;;;;;;;;;4916396;29;20040;-66
2022/04/18 06:25:45;;;;;;;18.80;11.52;;;;;;;;;;4920706;29;20450;-66
2022/04/18 06:28:14;;;;;;;21.38;12.48;;;;;;;;;;4935246;29;20063;-66
2022/04/18 06:30:40;;;;;;;18.42;12.43;;;;;;;;;;4935156;29;20170;-66
2022/04/18 06:33:10;;;;;;;17.92;11.32;;;;;;;;;;4965575;28;20542;-66
2022/04/18 06:35:36;;;;;;;18.50;11.82;;;;;;;;;;4935289;29;20099;-66
2022/04/18 06:38:02;;;;;;;19.92;11.98;;;;;;;;;;4935226;29;20498;-66
2022/04/18 06:40:28;;;;;;;17.13;11.25;;;;;;;;;;4934216;29;20043;-66
2022/04/18 06:42:54;;;;;;;17.23;11.80;;;;;;;;;;4934945;29;20039;-66
2022/04/18 06:45:20;;;;;;;15.82;11.27;;;;;;;;;;4934855;29;20044;-66
2022/04/18 06:47:46;;;;;;;17.20;11.57;;;;;;;;;;4934218;29;20474;-66
2022/04/18 06:50:12;;;;;;;19.48;11.70;;;;;;;;;;4934935;29;20043;-66
2022/04/18 06:52:50;;;;;;;16.27;11.05;;;;;;;;;;4934974;29;20103;-66
2022/04/18 06:55:16;;;;;;;16.58;11.68;;;;;;;;;;4933951;29;20059;-66
2022/04/18 06:57:42;;;;;;;16.27;11.10;;;;;;;;;;4934552;29;20047;-66
2022/04/18 07:00:08;;;;;;;17.50;10.73;;;;;;;;;;4934527;29;20183;-66
2022/04/18 07:02:35;;;;;;;16.15;10.85;;;;;;;;;;4934015;29;20051;-66
2022/04/18 07:05:01;;;;;;;16.70;10.70;;;;;;;;;;4934099;29;20047;-67
2022/04/18 07:07:27;;;;;;;15.05;10.32;;;;;;;;;;4934455;29;20051;-66
2022/04/18 07:09:53;;;;;;;21.85;10.45;;;;;;;;;;4933644;29;20135;-66
2022/04/18 07:12:22;;;;;;;17.67;10.35;;;;;;;;;;4934214;29;20127;-66
2022/04/18 07:14:48;;;;;;;16.48;10.95;;;;;;;;;;4934322;29;20483;-66
2022/04/18 07:17:14;;;;;;;16.73;10.38;;;;;;;;;;4933251;29;20122;-67
2022/04/18 07:19:40;;;;;;;17.65;11.57;;;;;;;;;;4933410;29;20167;-66
2022/04/18 07:22:07;;;;;;;17.73;10.60;;;;;;;;;;4934319;29;20048;-66
2022/04/18 07:24:33;;;;;;;15.50;10.70;;;;;;;;;;4934566;29;20047;-66
2022/04/18 07:27:01;;;;;;;14.52;9.75;;;;;;;;;;4920266;29;20051;-66
2022/04/18 07:29:28;;;;;;;16.98;9.68;;;;;;;;;;4915327;29;20048;-66
2022/04/18 07:31:54;;;;;;;16.90;11.13;;;;;;;;;;4914374;29;20051;-66
2022/04/18 07:34:20;;;;;;;15.05;10.23;;;;;;;;;;4915072;29;20447;-66
2022/04/18 07:36:46;;;;;;;16.90;10.88;;;;;;;;;;4915103;29;20043;-66
2022/04/18 07:39:19;;;;;;;15.48;10.77;;;;;;;;;;5140390;27;20129;-64
2022/04/18 07:41:45;;;;;;;15.75;10.25;;;;;;;;;;5107492;28;20046;-65
2022/04/18 07:44:11;;;;;;;12.52;9.18;;;;;;;;;;5107683;28;20032;-65
2022/04/18 07:46:37;;;;;;;13.57;9.63;;;;;;;;;;5108542;28;20039;-65
2022/04/18 07:49:03;;;;;;;13.25;9.68;;;;;;;;;;5109329;28;20514;-65
2022/04/18 07:51:34;;;;;;;14.30;9.15;;;;;;;;;;5109150;28;20039;-65
2022/04/18 07:54:01;;;;;;;11.80;8.57;;;;;;;;;;5108585;28;20138;-65
2022/04/18 07:56:27;;;;;;;13.55;8.88;;;;;;;;;;5098529;28;20036;-65
2022/04/18 07:58:54;;;;;;;15.00;9.02;;;;;;;;;;5107296;28;20109;-65
2022/04/18 08:01:20;;;;;;;17.02;8.80;;;;;;;;;;5104119;28;20042;-65
2022/04/18 08:03:46;;;;;;;14.00;8.20;;;;;;;;;;5107775;28;20031;-65
2022/04/18 08:06:12;;;;;;;11.85;7.85;;;;;;;;;;5107391;28;20122;-65
2022/04/18 08:08:38;;;;;;;14.63;8.30;;;;;;;;;;5105962;28;20100;-65
2022/04/18 08:11:04;;;;;;;12.45;8.07;;;;;;;;;;5106842;28;20044;-65
2022/04/18 08:13:31;;;;;;;11.93;8.40;;;;;;;;;;5107149;28;20046;-65
2022/04/18 08:15:57;;;;;;;12.23;8.05;;;;;;;;;;5106372;28;20036;-65
2022/04/18 08:18:23;;;;;;;11.52;7.93;;;;;;;;;;5107187;28;20047;-65
2022/04/18 08:20:49;;;;;;;13.80;8.27;;;;;;;;;;5106498;28;20409;-65
2022/04/18 08:23:16;;;;;;;11.73;7.65;;;;;;;;;;5107272;28;20032;-65
2022/04/18 08:25:42;;;;;;;12.73;8.15;;;;;;;;;;5101532;28;20066;-65
2022/04/18 08:28:08;;;;;;;14.23;9.25;;;;;;;;;;5088102;28;20083;-65
2022/04/18 08:30:34;;;;;;;15.88;8.88;;;;;;;;;;5086128;28;20159;-65
2022/04/18 08:33:00;;;;;;;13.68;8.30;;;;;;;;;;5086588;28;20143;-65
2022/04/18 08:35:26;;;;;;;12.32;8.23;;;;;;;;;;5086927;28;20555;-65
2022/04/18 08:37:52;;;;;;;12.68;8.23;;;;;;;;;;5085380;28;20105;-65
2022/04/18 08:40:21;;;;;;;13.95;9.00;;;;;;;;;;5086713;28;20048;-65
2022/04/18 08:42:47;;;;;;;13.15;8.00;;;;;;;;;;5086685;28;20058;-65
2022/04/18 08:45:14;;;;;;;14.43;8.45;;;;;;;;;;5094043;28;20027;-65
2022/04/18 08:53:11;;;;;;;10.10;7.85;;;;;;;;;;5092380;28;20054;-67
2022/04/18 08:55:37;;;;;;;12.68;8.38;;;;;;;;;;5093045;28;20066;-67
2022/04/18 08:58:05;;;;;;;10.90;7.93;;;;;;;;;;5093091;28;20394;-67
2022/04/18 09:00:31;;;;;;;15.55;8.60;;;;;;;;;;5092514;28;20039;-67
2022/04/18 09:02:57;;;;;;;11.30;7.60;;;;;;;;;;5093314;28;20032;-67
2022/04/18 09:05:23;;;;;;;12.75;8.00;;;;;;;;;;5092995;28;20367;-67
2022/04/18 09:08:02;;;;;;;13.18;8.05;;;;;;;;;;5092088;28;20040;-67
2022/04/18 09:10:29;;;;;;;10.15;7.68;;;;;;;;;;5093075;28;20043;-67
2022/04/18 09:13:05;;;;;;;13.68;8.35;;;;;;;;;;5092886;28;20083;-67
2022/04/18 09:15:35;;;;;;;12.27;8.52;;;;;;;;;;5092226;28;20044;-67
2022/04/18 09:18:13;;;;;;;14.93;9.18;;;;;;;;;;5092890;28;20051;-67
2022/04/18 09:20:45;;;;;;;10.70;8.25;;;;;;;;;;5090257;28;20032;-69
2022/04/18 09:23:24;;;;;;;11.95;8.60;;;;;;;;;;5089779;28;20361;-69
2022/04/18 09:25:53;;;;;;;12.75;8.65;;;;;;;;;;5091619;28;20089;-68
2022/04/18 09:28:23;;;;;;;11.63;7.80;;;;;;;;;;5091847;28;20044;-68
2022/04/18 09:30:55;;;;;;;13.05;8.00;;;;;;;;;;5091354;28;20043;-68
2022/04/18 09:33:21;;;;;;;11.48;7.93;;;;;;;;;;5091299;28;20052;-68
2022/04/18 09:35:47;;;;;;;11.88;8.32;;;;;;;;;;5090411;28;20040;-68
2022/04/18 09:38:17;;;;;;;11.30;8.57;;;;;;;;;;5090045;28;20136;-68
2022/04/18 09:40:44;;;;;;;11.57;7.93;;;;;;;;;;5091392;28;20044;-69
2022/04/18 09:43:10;;;;;;;12.75;8.60;;;;;;;;;;5091461;28;20059;-68
2022/04/18 09:45:37;;;;;;;12.57;8.75;;;;;;;;;;5090994;28;20036;-68
2022/04/18 09:48:03;;;;;;;11.88;8.05;;;;;;;;;;5091458;28;20043;-66
2022/04/18 09:53:18;;;;;;;11.60;7.90;;;;;;;;;;5090974;28;20101;-66
2022/04/18 09:55:45;;;;;;;12.20;7.97;;;;;;;;;;5091496;28;20712;-66
2022/04/18 09:58:11;;;;;;;13.27;8.02;;;;;;;;;;5089243;28;20504;-66
2022/04/18 10:00:38;;;;;;;10.35;7.43;;;;;;;;;;5090149;28;20043;-66
2022/04/18 10:03:04;;;;;;;13.30;7.97;;;;;;;;;;5090987;28;20085;-66
2022/04/18 10:05:30;;;;;;;12.88;7.30;;;;;;;;;;5091209;28;20032;-65
2022/04/18 10:07:56;;;;;;;10.88;7.25;;;;;;;;;;5090180;28;20071;-65
2022/04/18 10:10:23;;;;;;;10.63;7.47;;;;;;;;;;5090782;28;20048;-66
2022/04/18 10:12:50;;;;;;;12.35;7.85;;;;;;;;;;5090139;28;20323;-65
2022/04/18 10:15:16;;;;;;;12.15;7.10;;;;;;;;;;5090366;28;20098;-65
2022/04/18 10:17:43;;;;;;;11.70;6.82;;;;;;;;;;5090873;28;20048;-65
2022/04/18 10:20:25;;;;;;;8.65;6.60;;;;;;;;;;5090893;28;20462;-65
2022/04/18 10:22:54;;;;;;;13.50;7.18;;;;;;;;;;5089982;28;20451;-65
2022/04/18 10:25:20;;;;;;;11.00;6.75;;;;;;;;;;5089049;28;20074;-65
2022/04/18 10:27:57;;;;;;;7.25;5.30;;;;;;;;;;5088611;28;20173;-67
2022/04/18 10:30:23;;;;;;;7.95;5.10;;;;;;;;;;5089779;28;20043;-66
2022/04/18 10:32:50;;;;;;;9.82;6.25;;;;;;;;;;5091274;28;20449;-65
2022/04/18 10:35:16;;;;;;;8.68;5.97;;;;;;;;;;5091068;28;20411;-65
2022/04/18 10:37:43;;;;;;;6.95;5.50;;;;;;;;;;5090368;28;20048;-65
2022/04/18 10:40:09;;;;;;;8.02;5.70;;;;;;;;;;5091274;28;20048;-65
2022/04/18 10:42:35;;;;;;;7.55;5.03;;;;;;;;;;5091131;28;20039;-65
2022/04/18 10:45:10;;;;;;;6.93;4.95;;;;;;;;;;5090447;28;20663;-65
2022/04/18 10:47:55;;;;;;;8.25;5.22;;;;;;;;;;5090937;28;20055;-65
2022/04/18 10:50:22;;;;;;;6.50;4.80;;;;;;;;;;5090887;28;20047;-65
2022/04/18 10:53:08;;;;;;;8.85;4.65;;;;;;;;;;5090492;28;20043;-65
2022/04/18 10:55:34;;;;;;;6.50;4.28;;;;;;;;;;5091122;28;20435;-65
2022/04/18 10:58:16;;;;;;;9.90;4.70;;;;;;;;;;5090953;28;20067;-65
2022/04/18 11:00:42;;;;;;;;;;;;;;;;;;5091214;28;20604;-65
2022/04/18 11:03:08;;;;;;;5.68;3.35;;;;;;;;;;5090945;28;20018;-65
2022/04/18 11:05:38;;;;;;;3.95;3.25;;;;;;;;;;5090620;28;20048;-65
2022/04/18 11:08:11;;;;;;;3.53;2.50;;;;;;;;;;5090921;28;20393;-65
2022/04/18 11:10:38;;;;;;;4.38;2.50;;;;;;;;;;5090648;28;20044;-65
2022/04/18 11:13:06;;;;;;;5.57;3.00;;;;;;;;;;5090349;28;20575;-65
2022/04/18 11:15:32;;;;;;;6.32;3.58;;;;;;;;;;5090475;28;20050;-65
2022/04/18 11:18:01;;;;;;;7.70;4.20;;;;;;;;;;5090345;28;20135;-65
2022/04/18 11:20:30;;;;;;;6.30;4.47;;;;;;;;;;5089936;28;20379;-65
2022/04/18 11:23:14;;;;;;;7.47;4.30;;;;;;;;;;5090601;28;20043;-65
2022/04/18 11:25:50;;;;;;;5.07;3.42;;;;;;;;;;5090277;28;20036;-65
2022/04/18 11:28:16;;;;;;;5.50;3.53;;;;;;;;;;5089733;28;20036;-65
2022/04/18 11:30:42;;;;;;;4.97;3.92;;;;;;;;;;5090432;28;20094;-65
2022/04/18 11:33:08;;;;;;;8.75;4.80;;;;;;;;;;5090290;28;20083;-65
2022/04/18 11:35:34;;;;;;;6.13;4.90;;;;;;;;;;5089549;28;20044;-65
2022/04/18 11:38:07;;;;;;;8.25;4.70;;;;;;;;;;5089961;28;20056;-65
2022/04/18 11:40:32;;;;;;;;;;;;;;;;;;5090852;28;20047;-65
2022/04/18 11:43:00;;;;;;;6.10;3.67;;;;;;;;;;5089462;28;20433;-65
2022/04/18 11:45:27;;;;;;;4.78;3.92;;;;;;;;;;5090395;28;20055;-65
2022/04/18 11:47:53;;;;;;;5.95;4.25;;;;;;;;;;5090387;28;20040;-65
2022/04/18 11:50:23;;;;;;;5.20;3.70;;;;;;;;;;5089918;28;20141;-65
2022/04/18 11:52:49;;;;;;;5.47;3.83;;;;;;;;;;5090584;28;20043;-65
2022/04/18 11:55:19;;;;;;;7.68;4.05;;;;;;;;;;5090536;28;20040;-65
2022/04/18 11:57:46;;;;;;;5.03;4.13;;;;;;;;;;5089706;28;20044;-65
2022/04/18 12:00:13;;;;;;;5.90;4.38;;;;;;;;;;5090350;28;20036;-65
2022/04/18 12:08:18;;;;;;;5.70;4.20;;;;;;;;;;5089945;28;20044;-65
2022/04/18 12:10:45;;;;;;;5.78;4.47;;;;;;;;;;5090148;28;20495;-65
2022/04/18 12:13:13;;;;;;;5.57;4.15;;;;;;;;;;5089371;28;20071;-65
2022/04/18 12:15:40;;;;;;;6.53;4.07;;;;;;;;;;5090138;28;20133;-65
2022/04/18 12:18:08;;;;;;;6.28;4.32;;;;;;;;;;5089971;28;20043;-65
2022/04/18 12:20:34;;;;;;;5.93;4.70;;;;;;;;;;5089430;28;20129;-65
2022/04/18 12:23:02;;;;;;;7.68;4.60;;;;;;;;;;5090130;28;20040;-65
2022/04/18 12:25:32;;;;;;;5.60;4.40;;;;;;;;;;5089678;28;20036;-65
2022/04/18 12:27:58;;;;;;;5.88;4.50;;;;;;;;;;5073117;28;20037;-65
2022/04/18 12:30:25;;;;;;;6.68;4.25;;;;;;;;;;5073575;28;20048;-65
2022/04/18 12:32:53;;;;;;;5.35;4.60;;;;;;;;;;5073736;28;20044;-65
2022/04/18 12:35:36;;;;;;;5.70;4.47;;;;;;;;;;5071939;28;20047;-65
2022/04/18 12:38:03;;;;;;;6.97;4.65;;;;;;;;;;5073158;28;20102;-66
2022/04/18 12:40:33;;;;;;;6.03;4.32;;;;;;;;;;5073703;28;20041;-66
2022/04/18 12:43:04;;;;;;;5.68;4.38;;;;;;;;;;5073075;28;20120;-66
2022/04/18 12:45:46;;;;;;;6.15;3.90;;;;;;;;;;5073561;28;20454;-66
2022/04/18 12:48:12;;;;;;;4.57;4.07;;;;;;;;;;5073731;28;20056;-66
2022/04/18 12:50:38;;;;;;;5.60;4.25;;;;;;;;;;5072836;28;20040;-66
2022/04/18 12:53:04;;;;;;;9.05;4.45;;;;;;;;;;5073162;28;20044;-66
2022/04/18 12:55:31;;;;;;;6.53;4.35;;;;;;;;;;5073207;28;20105;-66
2022/04/18 12:57:57;;;;;;;5.50;4.38;;;;;;;;;;5072563;28;20048;-66
2022/04/18 13:00:24;;;;;;;6.38;4.80;;;;;;;;;;5073325;28;20033;-66
2022/04/18 13:02:56;;;;;;;6.53;4.43;;;;;;;;;;5073055;28;20483;-66
2022/04/18 13:05:26;;;;;;;6.68;4.63;;;;;;;;;;5072521;28;20470;-66
2022/04/18 13:07:52;;;;;;;6.05;4.40;;;;;;;;;;5073017;28;20095;-66
2022/04/18 13:10:26;;;;;;;7.10;4.20;;;;;;;;;;5073175;28;20043;-66
2022/04/18 13:13:01;;;;;;;6.65;4.40;;;;;;;;;;5070820;28;20641;-66
2022/04/18 13:15:28;;;;;;;5.97;4.38;;;;;;;;;;5073056;28;20446;-66
2022/04/18 13:17:59;;;;;;;6.47;4.50;;;;;;;;;;5072696;28;20040;-66
2022/04/18 13:20:25;;;;;;;5.28;4.75;;;;;;;;;;5072298;28;20471;-66
2022/04/18 13:22:51;;;;;;;4.55;4.15;;;;;;;;;;5072713;28;20086;-66
2022/04/18 13:25:17;;;;;;;5.78;4.95;;;;;;;;;;5074123;28;20383;-66
2022/04/18 13:27:45;;;;;;;4.70;4.20;;;;;;;;;;5091860;28;20138;-66
2022/04/18 13:30:11;;;;;;;4.72;4.32;;;;;;;;;;5092643;28;20069;-66
2022/04/18 13:32:37;;;;;;;6.28;4.95;;;;;;;;;;5092875;28;20040;-66
2022/04/18 13:35:03;;;;;;;6.18;4.60;;;;;;;;;;5092115;28;20043;-66
2022/04/18 13:37:29;;;;;;;5.72;4.50;;;;;;;;;;5092367;28;20429;-66
2022/04/18 13:39:55;;;;;;;5.60;4.57;;;;;;;;;;5092749;28;20126;-66
2022/04/18 13:42:21;;;;;;;5.60;4.20;;;;;;;;;;5091998;28;20626;-66
2022/04/18 13:44:47;;;;;;;6.20;4.32;;;;;;;;;;5092492;28;20051;-66
2022/04/18 13:47:13;;;;;;;6.60;4.65;;;;;;;;;;5092277;28;20044;-66
2022/04/18 13:49:40;;;;;;;6.03;4.47;;;;;;;;;;5091817;28;20047;-66
2022/04/18 13:52:10;;;;;;;4.72;4.30;;;;;;;;;;5092060;28;20040;-66
2022/04/18 13:54:39;;;;;;;7.28;4.50;;;;;;;;;;5092468;28;20082;-66
2022/04/18 13:57:06;;;;;;;5.15;4.65;;;;;;;;;;5091505;28;20039;-66
2022/04/18 13:59:32;;;;;;;5.80;5.05;;;;;;;;;;5092467;28;20046;-66
2022/04/18 14:01:58;;;;;;;5.20;4.70;;;;;;;;;;5092413;28;20394;-66
2022/04/18 14:04:24;;;;;;;5.97;4.65;;;;;;;;;;5091743;28;20047;-66
2022/04/18 14:06:50;;;;;;;7.10;4.03;;;;;;;;;;5092013;28;20044;-66
2022/04/18 14:09:16;;;;;;;5.47;4.28;;;;;;;;;;5092086;28;20040;-66
2022/04/18 14:11:42;;;;;;;7.20;4.47;;;;;;;;;;5091526;28;20046;-66
2022/04/18 14:14:08;;;;;;;5.10;3.95;;;;;;;;;;5091890;28;20555;-66
2022/04/18 14:22:04;;;;;;;5.18;3.50;;;;;;;;;;5091505;28;20036;-66
2022/04/18 14:24:30;;;;;;;4.97;3.65;;;;;;;;;;5091613;28;20509;-66
2022/04/18 14:26:56;;;;;;;4.30;3.80;;;;;;;;;;5075165;28;20111;-66
2022/04/18 14:29:22;;;;;;;6.50;4.03;;;;;;;;;;5071221;28;20438;-66
2022/04/18 14:31:48;;;;;;;4.20;3.30;;;;;;;;;;5071203;28;20475;-66
2022/04/18 14:34:14;;;;;;;3.78;3.38;;;;;;;;;;5070487;28;20045;-66
2022/04/18 14:36:40;;;;;;;4.47;3.80;;;;;;;;;;5071380;28;20058;-66
2022/04/18 14:39:06;;;;;;;5.22;3.85;;;;;;;;;;5069159;28;20106;-66
2022/04/18 14:41:33;;;;;;;3.95;3.55;;;;;;;;;;5070390;28;20452;-66
2022/04/18 14:44:02;;;;;;;5.60;3.67;;;;;;;;;;5070940;28;20223;-66
2022/04/18 14:46:28;;;;;;;3.58;2.97;;;;;;;;;;5070395;28;20119;-66
2022/04/18 14:48:55;;;;;;;4.07;3.65;;;;;;;;;;5069838;28;20448;-66
2022/04/18 14:51:21;;;;;;;4.20;3.55;;;;;;;;;;5070558;28;20084;-66
2022/04/18 14:53:47;;;;;;;3.90;3.50;;;;;;;;;;5070800;28;20090;-66
2022/04/18 14:56:14;;;;;;;4.45;3.45;;;;;;;;;;5070053;28;20033;-66